Time;durP1;ratioP1;P1;durP2;ratioP2;P2;SDS_P1;SDS_P2;PMS_P1;PMS_P2;Temp;Humidity;BMP_temperature;BMP_pressure;BME280_temperature;BME280_humidity;BME280_pressure;Samples;Min_cycle;Max_cycle;Signal;HPM_P1;HPM_P2
2021/06/21 00:00:40;;;;;;;67.80;20.15;;;;;;;;;;5081597;28;20040;-72
2021/06/21 00:03:06;;;;;;;57.47;20.30;;;;;;;;;;5049610;28;20047;-69
2021/06/21 00:05:32;;;;;;;59.72;20.70;;;;;;;;;;5079449;28;20554;-71
2021/06/21 00:07:58;;;;;;;55.28;21.38;;;;;;;;;;5077026;28;20028;-73
2021/06/21 00:10:25;;;;;;;59.05;20.42;;;;;;;;;;5049457;28;20050;-71
2021/06/21 00:12:51;;;;;;;58.92;20.27;;;;;;;;;;5063988;28;20031;-70
2021/06/21 00:15:19;;;;;;;55.42;19.42;;;;;;;;;;5078482;28;20032;-71
2021/06/21 00:17:45;;;;;;;47.95;18.17;;;;;;;;;;5047316;28;20063;-73
2021/06/21 00:20:12;;;;;;;53.10;19.38;;;;;;;;;;5077639;28;20070;-66
2021/06/21 00:22:39;;;;;;;49.75;19.38;;;;;;;;;;5050366;28;20138;-71
2021/06/21 00:25:06;;;;;;;58.88;20.40;;;;;;;;;;5070674;28;20136;-72
2021/06/21 00:27:34;;;;;;;51.88;19.50;;;;;;;;;;5061289;28;20144;-70
2021/06/21 00:30:00;;;;;;;66.13;18.80;;;;;;;;;;5026972;28;20041;-69
2021/06/21 00:32:26;;;;;;;51.97;19.67;;;;;;;;;;5033967;28;20033;-68
2021/06/21 00:34:52;;;;;;;59.10;19.27;;;;;;;;;;5060706;28;20060;-67
2021/06/21 00:37:17;;;;;;;55.42;18.90;;;;;;;;;;5027879;28;20037;-65
2021/06/21 00:39:43;;;;;;;64.32;19.77;;;;;;;;;;5055410;28;20060;-70
2021/06/21 00:42:08;;;;;;;60.63;19.10;;;;;;;;;;5048723;28;20072;-69
2021/06/21 00:44:34;;;;;;;61.88;20.13;;;;;;;;;;5064264;28;20472;-68
2021/06/21 00:47:00;;;;;;;55.47;19.65;;;;;;;;;;5049070;28;20469;-68
2021/06/21 00:49:25;;;;;;;55.58;20.20;;;;;;;;;;5048551;28;20542;-70
2021/06/21 00:51:52;;;;;;;53.90;21.20;;;;;;;;;;5056502;28;20032;-71
2021/06/21 00:54:19;;;;;;;77.68;21.65;;;;;;;;;;5019344;28;20070;-70
2021/06/21 00:56:45;;;;;;;58.10;21.58;;;;;;;;;;5051733;28;20029;-72
2021/06/21 00:59:11;;;;;;;58.30;20.65;;;;;;;;;;5044417;28;20426;-72
2021/06/21 01:01:37;;;;;;;71.50;20.75;;;;;;;;;;5046856;28;20028;-73
2021/06/21 01:04:02;;;;;;;52.67;20.08;;;;;;;;;;5064249;28;20036;-72
2021/06/21 01:06:28;;;;;;;62.20;20.20;;;;;;;;;;5062305;28;20020;-73
2021/06/21 01:08:54;;;;;;;60.10;20.58;;;;;;;;;;5027999;28;20447;-71
2021/06/21 01:11:20;;;;;;;60.97;20.75;;;;;;;;;;5044462;28;20242;-72
2021/06/21 01:13:48;;;;;;;48.60;20.67;;;;;;;;;;5045179;28;20040;-71
2021/06/21 01:16:17;;;;;;;68.70;21.35;;;;;;;;;;5046688;28;20209;-72
2021/06/21 01:19:08;;;;;;;59.67;21.10;;;;;;;;;;5030481;28;20555;-73
2021/06/21 01:21:35;;;;;;;56.80;20.30;;;;;;;;;;5008399;28;20127;-73
2021/06/21 01:24:10;;;;;;;61.28;21.20;;;;;;;;;;5010790;28;20136;-72
2021/06/21 01:26:43;;;;;;;52.22;19.90;;;;;;;;;;5057090;28;20087;-71
2021/06/21 01:29:25;;;;;;;59.28;20.80;;;;;;;;;;5068087;28;20098;-71
2021/06/21 01:32:06;;;;;;;52.38;20.33;;;;;;;;;;5078835;28;20139;-70
2021/06/21 01:34:33;;;;;;;56.80;20.40;;;;;;;;;;5064222;28;20045;-70
2021/06/21 01:37:01;;;;;;;59.58;20.60;;;;;;;;;;5047385;28;20050;-71
2021/06/21 01:39:30;;;;;;;62.95;20.30;;;;;;;;;;5079212;28;20465;-70
2021/06/21 01:41:59;;;;;;;68.60;21.50;;;;;;;;;;5067983;28;20039;-70
2021/06/21 01:44:30;;;;;;;71.90;21.98;;;;;;;;;;5049386;28;20109;-71
2021/06/21 01:46:57;;;;;;;73.32;21.40;;;;;;;;;;5064957;28;20040;-71
2021/06/21 01:49:25;;;;;;;87.10;22.33;;;;;;;;;;5050396;28;20123;-71
2021/06/21 01:51:54;;;;;;;57.53;21.60;;;;;;;;;;5072232;28;20203;-71
2021/06/21 01:54:23;;;;;;;55.53;22.08;;;;;;;;;;5045693;28;20044;-71
2021/06/21 01:56:48;;;;;;;71.82;23.00;;;;;;;;;;5048399;28;20127;-70
2021/06/21 01:59:15;;;;;;;73.95;22.50;;;;;;;;;;5073829;28;20128;-70
2021/06/21 02:01:43;;;;;;;63.80;22.73;;;;;;;;;;5071115;28;20511;-71
2021/06/21 02:04:12;;;;;;;84.07;24.25;;;;;;;;;;5061320;28;20047;-72
2021/06/21 02:06:39;;;;;;;75.55;22.38;;;;;;;;;;5081333;28;20040;-71
2021/06/21 02:09:06;;;;;;;78.88;23.60;;;;;;;;;;5065926;28;20046;-71
2021/06/21 02:11:32;;;;;;;82.80;22.77;;;;;;;;;;5068574;28;20040;-72
2021/06/21 02:13:58;;;;;;;76.13;21.92;;;;;;;;;;5075915;28;20485;-72
2021/06/21 02:16:24;;;;;;;76.00;23.48;;;;;;;;;;5080873;28;20058;-71
2021/06/21 02:18:51;;;;;;;89.38;23.25;;;;;;;;;;5082475;28;20111;-71
2021/06/21 02:21:18;;;;;;;78.18;24.20;;;;;;;;;;5079483;28;21446;-72
2021/06/21 02:23:43;;;;;;;70.03;22.25;;;;;;;;;;5065592;28;20040;-72
2021/06/21 02:26:10;;;;;;;94.13;22.73;;;;;;;;;;5072475;28;20059;-69
2021/06/21 02:28:36;;;;;;;81.43;22.90;;;;;;;;;;5071446;28;20067;-70
2021/06/21 02:31:05;;;;;;;68.10;21.48;;;;;;;;;;5067810;28;20586;-71
2021/06/21 02:33:32;;;;;;;68.57;21.08;;;;;;;;;;5067550;28;20051;-71
2021/06/21 02:35:57;;;;;;;63.42;20.55;;;;;;;;;;5069178;28;20041;-70
2021/06/21 02:38:25;;;;;;;62.35;21.88;;;;;;;;;;5082858;28;20066;-69
2021/06/21 02:40:51;;;;;;;76.72;20.27;;;;;;;;;;5079294;28;20044;-68
2021/06/21 02:43:16;;;;;;;68.40;22.75;;;;;;;;;;5063922;28;20043;-69
2021/06/21 02:45:42;;;;;;;79.65;23.00;;;;;;;;;;5067109;28;20032;-69
2021/06/21 02:48:09;;;;;;;75.45;24.52;;;;;;;;;;5053686;28;20480;-69
2021/06/21 02:50:35;;;;;;;90.75;23.85;;;;;;;;;;5065114;28;20426;-71
2021/06/21 02:53:13;;;;;;;83.72;25.55;;;;;;;;;;5073272;28;20033;-72
2021/06/21 02:55:44;;;;;;;101.30;23.33;;;;;;;;;;5071798;28;20028;-72
2021/06/21 02:58:24;;;;;;;95.03;24.67;;;;;;;;;;5073890;28;20411;-72
2021/06/21 03:03:55;;;;;;;122.93;32.42;;;;;;;;;;5065352;28;20036;-71
2021/06/21 03:06:22;;;;;;;123.75;36.15;;;;;;;;;;5077665;28;20383;-72
2021/06/21 03:08:48;;;;;;;98.47;34.47;;;;;;;;;;5069370;28;20113;-72
2021/06/21 03:11:14;;;;;;;110.43;38.63;;;;;;;;;;5083600;28;20524;-70
2021/06/21 03:13:40;;;;;;;121.40;37.75;;;;;;;;;;5066146;28;20040;-73
2021/06/21 03:16:06;;;;;;;123.72;36.33;;;;;;;;;;5069991;28;20036;-71
2021/06/21 03:18:34;;;;;;;120.95;35.15;;;;;;;;;;5079573;28;20037;-74
2021/06/21 03:21:00;;;;;;;97.63;32.03;;;;;;;;;;5065119;28;20407;-70
2021/06/21 03:23:26;;;;;;;91.05;30.75;;;;;;;;;;5067092;28;20520;-76
2021/06/21 03:25:59;;;;;;;94.60;31.85;;;;;;;;;;5074925;28;20056;-75
2021/06/21 03:28:24;;;;;;;110.90;31.88;;;;;;;;;;5046688;28;20617;-68
2021/06/21 03:30:51;;;;;;;96.47;31.42;;;;;;;;;;5068030;28;20082;-70
2021/06/21 03:33:18;;;;;;;110.78;31.20;;;;;;;;;;5067182;28;20454;-78
2021/06/21 03:35:43;;;;;;;98.75;31.33;;;;;;;;;;5074965;28;20051;-68
2021/06/21 03:38:18;;;;;;;109.55;32.40;;;;;;;;;;5072826;28;20040;-69
2021/06/21 03:40:45;;;;;;;126.18;30.77;;;;;;;;;;5052413;28;20047;-68
2021/06/21 03:43:16;;;;;;;111.75;32.35;;;;;;;;;;5066423;28;20035;-71
2021/06/21 03:45:44;;;;;;;147.75;32.75;;;;;;;;;;5075986;28;20109;-71
2021/06/21 03:48:11;;;;;;;126.25;31.02;;;;;;;;;;5065540;28;20416;-73
2021/06/21 03:50:37;;;;;;;116.43;31.98;;;;;;;;;;5080694;28;20089;-71
2021/06/21 03:53:03;;;;;;;114.60;31.92;;;;;;;;;;5070239;28;20393;-66
2021/06/21 03:55:29;;;;;;;117.75;33.42;;;;;;;;;;5065831;28;20515;-70
2021/06/21 03:57:55;;;;;;;126.72;31.80;;;;;;;;;;5080846;28;20051;-71
2021/06/21 04:00:24;;;;;;;99.93;33.70;;;;;;;;;;5064313;28;20040;-72
2021/06/21 04:02:52;;;;;;;99.65;32.17;;;;;;;;;;5079023;28;20028;-68
2021/06/21 04:05:17;;;;;;;107.72;33.47;;;;;;;;;;5076968;28;20032;-68
2021/06/21 04:07:44;;;;;;;101.68;33.25;;;;;;;;;;5064201;28;20487;-68
2021/06/21 04:10:11;;;;;;;102.68;32.22;;;;;;;;;;5079138;28;20043;-66
2021/06/21 04:12:38;;;;;;;116.22;30.52;;;;;;;;;;5039373;28;20037;-70
2021/06/21 04:15:10;;;;;;;106.22;31.83;;;;;;;;;;5038361;28;20596;-68
2021/06/21 04:17:37;;;;;;;86.97;28.30;;;;;;;;;;5063667;28;20059;-66
2021/06/21 04:20:07;;;;;;;119.63;32.42;;;;;;;;;;5083054;28;20082;-71
2021/06/21 04:22:34;;;;;;;122.32;30.92;;;;;;;;;;5070060;28;20102;-69
2021/06/21 04:24:59;;;;;;;115.10;29.33;;;;;;;;;;5066701;28;20032;-68
2021/06/21 04:27:26;;;;;;;115.40;27.75;;;;;;;;;;5054303;28;20215;-70
2021/06/21 04:29:52;;;;;;;126.10;28.90;;;;;;;;;;5065643;28;20397;-68
2021/06/21 04:32:17;;;;;;;111.07;27.35;;;;;;;;;;5083004;28;20432;-68
2021/06/21 04:34:43;;;;;;;111.88;26.27;;;;;;;;;;5074481;28;20040;-66
2021/06/21 04:37:09;;;;;;;97.10;25.80;;;;;;;;;;5071301;28;20036;-70
2021/06/21 04:39:34;;;;;;;103.10;25.55;;;;;;;;;;5078038;28;20040;-70
2021/06/21 04:42:00;;;;;;;121.25;23.77;;;;;;;;;;5075992;28;20059;-69
2021/06/21 04:44:25;;;;;;;116.32;24.15;;;;;;;;;;5062904;28;20036;-69
2021/06/21 04:46:51;;;;;;;94.82;23.98;;;;;;;;;;5082164;28;20066;-67
2021/06/21 04:49:17;;;;;;;104.22;21.70;;;;;;;;;;5064989;28;20041;-68
2021/06/21 04:51:45;;;;;;;90.60;21.08;;;;;;;;;;5065599;28;20143;-71
2021/06/21 04:54:13;;;;;;;93.72;19.70;;;;;;;;;;5057731;28;20424;-67
2021/06/21 04:56:39;;;;;;;75.40;20.95;;;;;;;;;;5049193;28;20101;-69
2021/06/21 04:59:05;;;;;;;82.25;20.30;;;;;;;;;;5073149;28;20036;-68
2021/06/21 05:01:31;;;;;;;86.03;20.05;;;;;;;;;;5076275;28;20159;-70
2021/06/21 05:04:00;;;;;;;64.95;18.15;;;;;;;;;;5085049;28;20027;-72
2021/06/21 05:06:27;;;;;;;68.32;19.48;;;;;;;;;;5051301;28;20105;-69
2021/06/21 05:08:55;;;;;;;47.47;17.70;;;;;;;;;;5076524;28;20032;-65
2021/06/21 05:11:22;;;;;;;46.70;14.65;;;;;;;;;;5043690;28;20170;-71
2021/06/21 05:13:48;;;;;;;55.47;17.75;;;;;;;;;;5077660;28;20032;-71
2021/06/21 05:16:16;;;;;;;39.75;16.60;;;;;;;;;;5075205;28;20064;-72
2021/06/21 05:18:41;;;;;;;49.65;18.05;;;;;;;;;;5073186;28;20642;-75
2021/06/21 05:21:07;;;;;;;60.90;20.33;;;;;;;;;;5076360;28;20044;-73
2021/06/21 05:23:32;;;;;;;35.65;14.05;;;;;;;;;;5074880;28;20032;-70
2021/06/21 05:25:58;;;;;;;30.73;11.55;;;;;;;;;;5075781;28;20063;-67
2021/06/21 05:28:24;;;;;;;23.27;6.45;;;;;;;;;;5074925;28;20036;-72
2021/06/21 05:30:49;;;;;;;49.45;14.63;;;;;;;;;;5074497;28;20048;-69
2021/06/21 05:33:15;;;;;;;37.53;11.27;;;;;;;;;;5085775;28;20089;-71
2021/06/21 05:35:41;;;;;;;32.13;9.93;;;;;;;;;;5074959;28;20040;-71
2021/06/21 05:38:07;;;;;;;25.02;7.57;;;;;;;;;;5078837;28;20076;-73
2021/06/21 05:40:35;;;;;;;24.90;8.80;;;;;;;;;;5063923;28;20036;-73
2021/06/21 05:43:01;;;;;;;19.67;5.88;;;;;;;;;;5065255;28;20221;-77
2021/06/21 05:45:27;;;;;;;19.10;4.03;;;;;;;;;;5069459;28;20024;-75
2021/06/21 05:47:53;;;;;;;21.50;6.93;;;;;;;;;;5075905;28;20037;-77
2021/06/21 05:50:20;;;;;;;24.60;8.70;;;;;;;;;;5058915;28;20039;-73
2021/06/21 05:52:49;;;;;;;35.78;9.35;;;;;;;;;;5045077;28;20028;-74
2021/06/21 05:55:18;;;;;;;48.65;13.88;;;;;;;;;;5044397;28;20535;-71
2021/06/21 05:57:48;;;;;;;39.33;17.77;;;;;;;;;;5068588;28;20040;-70
2021/06/21 06:00:14;;;;;;;51.10;20.95;;;;;;;;;;5030263;28;20283;-73
2021/06/21 06:02:40;;;;;;;46.15;16.52;;;;;;;;;;5075768;28;20044;-75
2021/06/21 06:05:06;;;;;;;46.90;18.90;;;;;;;;;;5071984;28;20032;-73
2021/06/21 06:07:33;;;;;;;38.85;14.60;;;;;;;;;;5071944;28;20028;-72
2021/06/21 06:09:59;;;;;;;34.75;13.15;;;;;;;;;;5059246;28;20082;-73
2021/06/21 06:12:25;;;;;;;39.03;10.55;;;;;;;;;;5077838;28;20040;-71
2021/06/21 06:14:51;;;;;;;51.72;9.70;;;;;;;;;;5080928;28;20039;-73
2021/06/21 06:17:17;;;;;;;46.05;8.32;;;;;;;;;;5060221;28;20177;-70
2021/06/21 06:19:42;;;;;;;49.95;7.65;;;;;;;;;;5077842;28;20109;-66
2021/06/21 06:22:08;;;;;;;55.60;11.55;;;;;;;;;;5061615;28;20036;-72
2021/06/21 06:24:34;;;;;;;45.85;11.27;;;;;;;;;;5080547;28;20604;-73
2021/06/21 06:27:00;;;;;;;40.42;13.00;;;;;;;;;;5071344;28;20135;-69
2021/06/21 06:29:29;;;;;;;22.10;9.10;;;;;;;;;;5072725;28;20184;-74
2021/06/21 06:31:56;;;;;;;27.88;9.80;;;;;;;;;;5054832;28;20136;-74
2021/06/21 06:34:22;;;;;;;47.63;12.13;;;;;;;;;;5072464;28;20181;-75
2021/06/21 06:36:48;;;;;;;36.65;8.55;;;;;;;;;;5073022;28;20047;-76
2021/06/21 06:39:14;;;;;;;29.15;7.60;;;;;;;;;;5041800;28;20040;-74
2021/06/21 06:41:39;;;;;;;28.80;7.80;;;;;;;;;;5073627;28;20226;-74
2021/06/21 06:44:05;;;;;;;40.63;10.20;;;;;;;;;;5076708;28;20044;-71
2021/06/21 06:46:31;;;;;;;50.65;11.02;;;;;;;;;;5060477;28;20062;-75
2021/06/21 06:48:57;;;;;;;41.15;10.38;;;;;;;;;;5073733;28;20044;-72
2021/06/21 06:51:23;;;;;;;25.67;8.43;;;;;;;;;;5059610;28;20036;-72
2021/06/21 06:54:02;;;;;;;32.63;8.90;;;;;;;;;;5080477;28;20457;-74
2021/06/21 06:59:13;;;;;;;18.77;5.72;;;;;;;;;;5071882;28;20032;-74
2021/06/21 07:01:38;;;;;;;20.92;5.60;;;;;;;;;;5081521;28;20047;-79
2021/06/21 07:04:04;;;;;;;11.88;4.50;;;;;;;;;;5062894;28;20047;-72
2021/06/21 07:06:31;;;;;;;24.90;9.75;;;;;;;;;;5073689;28;20440;-68
2021/06/21 07:08:57;;;;;;;25.80;4.97;;;;;;;;;;5080736;28;20040;-74
2021/06/21 07:11:23;;;;;;;19.15;6.28;;;;;;;;;;5062147;28;20488;-76
2021/06/21 07:13:48;;;;;;;23.10;5.15;;;;;;;;;;5083268;28;20028;-73
2021/06/21 07:16:14;;;;;;;18.17;5.22;;;;;;;;;;5074150;28;20069;-72
2021/06/21 07:18:40;;;;;;;22.10;5.10;;;;;;;;;;5085689;28;20040;-73
2021/06/21 07:21:05;;;;;;;17.55;5.30;;;;;;;;;;5086653;28;20028;-76
2021/06/21 07:23:31;;;;;;;20.02;6.07;;;;;;;;;;5077527;28;20036;-72
2021/06/21 07:25:57;;;;;;;19.67;5.65;;;;;;;;;;5075705;28;20476;-75
2021/06/21 07:28:26;;;;;;;28.60;5.80;;;;;;;;;;5060477;28;20050;-73
2021/06/21 07:30:52;;;;;;;28.88;5.57;;;;;;;;;;5082013;28;20040;-74
2021/06/21 07:33:18;;;;;;;30.02;5.53;;;;;;;;;;5081494;28;20513;-70
2021/06/21 07:35:43;;;;;;;25.27;5.75;;;;;;;;;;5084555;28;20042;-75
2021/06/21 07:38:09;;;;;;;23.08;5.50;;;;;;;;;;5069406;28;20408;-73
2021/06/21 07:40:37;;;;;;;25.33;5.53;;;;;;;;;;5062663;28;20245;-74
2021/06/21 07:43:03;;;;;;;18.52;5.18;;;;;;;;;;5079107;28;20115;-72
2021/06/21 07:45:28;;;;;;;22.17;4.95;;;;;;;;;;5062945;28;20036;-71
2021/06/21 07:47:57;;;;;;;35.05;5.82;;;;;;;;;;5084784;28;20550;-72
2021/06/21 07:50:27;;;;;;;34.20;6.03;;;;;;;;;;5062776;28;20062;-73
2021/06/21 07:52:54;;;;;;;21.77;5.93;;;;;;;;;;5064235;28;20130;-71
2021/06/21 07:55:24;;;;;;;35.42;6.00;;;;;;;;;;5054052;28;20036;-70
2021/06/21 07:57:50;;;;;;;22.77;5.25;;;;;;;;;;5056961;28;20137;-70
2021/06/21 08:00:18;;;;;;;11.50;4.82;;;;;;;;;;5065931;28;20484;-71
2021/06/21 08:02:44;;;;;;;17.05;5.47;;;;;;;;;;5078174;28;20044;-72
2021/06/21 08:05:09;;;;;;;23.67;5.20;;;;;;;;;;5075947;28;20124;-71
2021/06/21 08:07:36;;;;;;;11.50;5.25;;;;;;;;;;5073186;28;20225;-69
2021/06/21 08:10:02;;;;;;;18.25;5.60;;;;;;;;;;5085277;28;20077;-70
2021/06/21 08:12:29;;;;;;;10.23;4.47;;;;;;;;;;5059965;28;20115;-69
2021/06/21 08:14:54;;;;;;;15.70;4.90;;;;;;;;;;5074245;28;20449;-73
2021/06/21 08:17:20;;;;;;;18.63;4.95;;;;;;;;;;5078044;28;20036;-73
2021/06/21 08:19:46;;;;;;;14.27;4.57;;;;;;;;;;5065057;28;20032;-70
2021/06/21 08:22:11;;;;;;;23.42;5.00;;;;;;;;;;5075544;28;20073;-72
2021/06/21 08:24:41;;;;;;;14.43;4.45;;;;;;;;;;5075612;28;20043;-69
2021/06/21 08:27:06;;;;;;;12.15;4.65;;;;;;;;;;5078204;28;20062;-74
2021/06/21 08:29:32;;;;;;;8.63;4.93;;;;;;;;;;5055579;28;20135;-70
2021/06/21 08:31:57;;;;;;;19.67;5.40;;;;;;;;;;5078462;28;20120;-72
2021/06/21 08:34:23;;;;;;;20.40;4.97;;;;;;;;;;5075507;28;20512;-71
2021/06/21 08:36:49;;;;;;;18.05;5.68;;;;;;;;;;5077069;28;20385;-71
2021/06/21 08:39:14;;;;;;;15.45;5.55;;;;;;;;;;5078583;28;20056;-70
2021/06/21 08:41:42;;;;;;;27.05;5.63;;;;;;;;;;5060031;28;20024;-69
2021/06/21 08:44:08;;;;;;;19.95;5.32;;;;;;;;;;5059484;28;20419;-73
2021/06/21 08:46:34;;;;;;;20.25;5.38;;;;;;;;;;5077267;28;20047;-72
2021/06/21 08:49:02;;;;;;;20.50;5.20;;;;;;;;;;5080205;28;20109;-70
2021/06/21 08:51:28;;;;;;;13.82;5.30;;;;;;;;;;5061770;28;20101;-72
2021/06/21 08:53:53;;;;;;;12.70;4.85;;;;;;;;;;5078559;28;20398;-73
2021/06/21 08:56:19;;;;;;;11.45;4.63;;;;;;;;;;5073106;28;20395;-72
2021/06/21 08:58:45;;;;;;;20.08;5.28;;;;;;;;;;5079983;28;20072;-73
2021/06/21 09:01:10;;;;;;;15.75;5.50;;;;;;;;;;5078115;28;20127;-72
2021/06/21 09:03:44;;;;;;;17.67;5.43;;;;;;;;;;5079700;28;20036;-73
2021/06/21 09:06:20;;;;;;;16.77;5.18;;;;;;;;;;5079330;28;20028;-72
2021/06/21 09:08:51;;;;;;;17.52;4.32;;;;;;;;;;5081100;28;20032;-72
2021/06/21 09:11:17;;;;;;;14.13;4.20;;;;;;;;;;5072805;28;20684;-70
2021/06/21 09:13:43;;;;;;;11.90;4.00;;;;;;;;;;5073921;28;20052;-70
2021/06/21 09:16:08;;;;;;;14.55;4.20;;;;;;;;;;5061419;28;20082;-72
2021/06/21 09:18:35;;;;;;;17.20;4.00;;;;;;;;;;5073597;28;20426;-73
2021/06/21 09:21:21;;;;;;;22.90;4.45;;;;;;;;;;5079265;28;20476;-74
2021/06/21 09:23:47;;;;;;;15.18;3.72;;;;;;;;;;5058516;28;20482;-73
2021/06/21 09:26:21;;;;;;;10.63;3.97;;;;;;;;;;5074737;28;20539;-74
2021/06/21 09:28:49;;;;;;;17.95;4.05;;;;;;;;;;5042695;28;20400;-69
2021/06/21 09:31:14;;;;;;;20.80;4.07;;;;;;;;;;5048490;28;20467;-74
2021/06/21 09:33:40;;;;;;;32.28;5.20;;;;;;;;;;5082702;28;20044;-77
2021/06/21 09:36:06;;;;;;;24.00;5.40;;;;;;;;;;5066716;28;20127;-73
2021/06/21 09:38:32;;;;;;;17.75;4.47;;;;;;;;;;5079462;28;20038;-71
2021/06/21 09:40:59;;;;;;;11.60;3.97;;;;;;;;;;5060669;28;20043;-73
2021/06/21 09:43:29;;;;;;;23.13;4.00;;;;;;;;;;5077275;28;20050;-74
2021/06/21 09:46:01;;;;;;;19.92;3.85;;;;;;;;;;5051909;28;20036;-72
2021/06/21 09:48:33;;;;;;;16.90;3.30;;;;;;;;;;5063554;28;20040;-68
2021/06/21 09:51:15;;;;;;;20.23;3.92;;;;;;;;;;5046535;28;20425;-70
2021/06/21 09:53:41;;;;;;;13.40;3.75;;;;;;;;;;5048438;28;20420;-70
2021/06/21 09:56:06;;;;;;;25.40;4.57;;;;;;;;;;5083687;28;20127;-70
2021/06/21 09:58:34;;;;;;;19.80;4.88;;;;;;;;;;5078543;28;20388;-71
2021/06/21 10:01:09;;;;;;;16.08;3.38;;;;;;;;;;5062695;28;20032;-71
2021/06/21 10:03:39;;;;;;;17.77;4.03;;;;;;;;;;5031725;28;20025;-71
2021/06/21 10:06:09;;;;;;;12.68;3.28;;;;;;;;;;5041794;28;20513;-70
2021/06/21 10:08:55;;;;;;;21.20;4.13;;;;;;;;;;5059513;28;20032;-73
2021/06/21 10:11:28;;;;;;;14.43;3.55;;;;;;;;;;5092331;28;20373;-71
2021/06/21 10:13:55;;;;;;;12.93;3.53;;;;;;;;;;5061213;28;20304;-71
2021/06/21 10:16:20;;;;;;;16.95;3.97;;;;;;;;;;5064962;28;20123;-73
2021/06/21 10:18:46;;;;;;;11.55;3.90;;;;;;;;;;5053734;28;20508;-69
2021/06/21 10:21:12;;;;;;;12.95;3.55;;;;;;;;;;5050395;28;20038;-69
2021/06/21 10:23:37;;;;;;;11.25;3.92;;;;;;;;;;5067647;28;20581;-67
2021/06/21 10:26:03;;;;;;;19.48;4.10;;;;;;;;;;5055341;28;20512;-69
2021/06/21 10:28:29;;;;;;;16.85;3.90;;;;;;;;;;5068572;28;20412;-68
2021/06/21 10:30:56;;;;;;;16.50;3.92;;;;;;;;;;5073846;28;20496;-69
2021/06/21 10:33:22;;;;;;;12.38;3.25;;;;;;;;;;5076856;28;20028;-70
2021/06/21 10:35:48;;;;;;;16.15;2.70;;;;;;;;;;5082867;28;20471;-72
2021/06/21 10:38:16;;;;;;;12.27;3.28;;;;;;;;;;5081793;28;20055;-74
2021/06/21 10:40:53;;;;;;;12.93;2.90;;;;;;;;;;5075092;28;20025;-69
2021/06/21 10:43:53;;;;;;;8.85;2.63;;;;;;;;;;5059345;28;20403;-71
2021/06/21 10:46:23;;;;;;;9.10;2.90;;;;;;;;;;5054197;28;20040;-71
2021/06/21 10:48:59;;;;;;;7.78;2.55;;;;;;;;;;5063674;28;20036;-70
2021/06/21 10:51:32;;;;;;;13.10;2.83;;;;;;;;;;5083438;28;20036;-72
2021/06/21 10:53:58;;;;;;;5.85;3.13;;;;;;;;;;5053317;28;20138;-70
2021/06/21 10:56:42;;;;;;;11.40;2.90;;;;;;;;;;5076842;28;20039;-71
2021/06/21 10:59:11;;;;;;;12.90;3.30;;;;;;;;;;5077124;28;20423;-71
2021/06/21 11:01:46;;;;;;;14.60;3.53;;;;;;;;;;5078793;28;20119;-70
2021/06/21 11:04:32;;;;;;;8.23;2.90;;;;;;;;;;5078321;28;20449;-69
2021/06/21 11:07:08;;;;;;;15.20;2.70;;;;;;;;;;5085043;28;20036;-73
2021/06/21 11:09:47;;;;;;;16.33;2.67;;;;;;;;;;5066966;28;20043;-72
2021/06/21 11:12:22;;;;;;;12.48;2.83;;;;;;;;;;5063158;28;20036;-70
2021/06/21 11:15:00;;;;;;;8.88;2.50;;;;;;;;;;5060259;28;20438;-70
2021/06/21 11:17:26;;;;;;;12.18;2.90;;;;;;;;;;5059852;28;20045;-71
2021/06/21 11:19:54;;;;;;;10.25;2.40;;;;;;;;;;5083020;28;20109;-71
2021/06/21 11:22:39;;;;;;;18.27;2.63;;;;;;;;;;5057475;28;20063;-71
2021/06/21 11:25:18;;;;;;;15.50;2.80;;;;;;;;;;5077695;28;20549;-72
2021/06/21 11:27:44;;;;;;;6.10;2.60;;;;;;;;;;5076604;28;20040;-72
2021/06/21 11:30:25;;;;;;;9.10;2.60;;;;;;;;;;5079965;28;20116;-72
2021/06/21 11:32:57;;;;;;;13.45;2.95;;;;;;;;;;5062036;28;20497;-71
2021/06/21 11:35:41;;;;;;;7.78;2.40;;;;;;;;;;5077254;28;20028;-70
2021/06/21 11:38:25;;;;;;;11.13;2.70;;;;;;;;;;5057374;28;20504;-72
2021/06/21 11:41:09;;;;;;;10.70;2.95;;;;;;;;;;5067106;28;20044;-73
2021/06/21 11:43:42;;;;;;;11.18;2.60;;;;;;;;;;5069121;28;20035;-73
2021/06/21 11:46:08;;;;;;;16.30;2.80;;;;;;;;;;5067399;28;20068;-71
2021/06/21 11:48:37;;;;;;;17.40;2.78;;;;;;;;;;5071821;28;20127;-70
2021/06/21 11:51:11;;;;;;;18.58;2.97;;;;;;;;;;5078629;28;20036;-69
2021/06/21 11:53:40;;;;;;;14.70;2.90;;;;;;;;;;5069296;28;20050;-72
2021/06/21 11:56:05;;;;;;;13.98;3.20;;;;;;;;;;5083663;28;20040;-72
2021/06/21 11:58:32;;;;;;;11.52;2.83;;;;;;;;;;5078253;28;20463;-71
2021/06/21 12:00:59;;;;;;;11.45;2.63;;;;;;;;;;5051071;28;20041;-70
2021/06/21 12:03:32;;;;;;;11.52;2.70;;;;;;;;;;5047581;28;20543;-71
2021/06/21 12:05:58;;;;;;;17.67;2.78;;;;;;;;;;5071981;28;20036;-70
2021/06/21 12:08:25;;;;;;;15.55;3.17;;;;;;;;;;5077227;28;20408;-71
2021/06/21 12:10:52;;;;;;;19.52;3.17;;;;;;;;;;5046365;28;20032;-70
2021/06/21 12:13:18;;;;;;;12.48;3.10;;;;;;;;;;5069945;28;20417;-73
2021/06/21 12:15:46;;;;;;;9.27;3.00;;;;;;;;;;5042534;28;20020;-71
2021/06/21 12:18:11;;;;;;;15.48;3.60;;;;;;;;;;5062260;28;20039;-72
2021/06/21 12:20:37;;;;;;;10.23;3.88;;;;;;;;;;5074116;28;20390;-71
2021/06/21 12:23:08;;;;;;;9.95;3.45;;;;;;;;;;5075554;28;20433;-70
2021/06/21 12:25:36;;;;;;;12.70;2.90;;;;;;;;;;5063894;28;20075;-71
2021/06/21 12:28:10;;;;;;;15.15;3.88;;;;;;;;;;5058417;28;20110;-71
2021/06/21 12:30:40;;;;;;;9.55;2.60;;;;;;;;;;5056270;28;20173;-70
2021/06/21 12:33:24;;;;;;;8.80;2.90;;;;;;;;;;5085072;28;20028;-71
2021/06/21 12:36:11;;;;;;;23.25;3.38;;;;;;;;;;5077310;28;20122;-72
2021/06/21 12:38:38;;;;;;;18.98;3.58;;;;;;;;;;5063378;28;20048;-69
2021/06/21 12:41:15;;;;;;;20.90;3.35;;;;;;;;;;5077207;28;20039;-71
2021/06/21 12:43:50;;;;;;;13.43;3.17;;;;;;;;;;5073130;28;20377;-70
2021/06/21 12:46:20;;;;;;;22.65;4.15;;;;;;;;;;5074977;28;20504;-70
2021/06/21 12:48:47;;;;;;;19.63;3.70;;;;;;;;;;5060205;28;20040;-70
2021/06/21 12:51:13;;;;;;;16.17;4.00;;;;;;;;;;5078093;28;20066;-70
2021/06/21 12:53:44;;;;;;;11.00;3.22;;;;;;;;;;5077109;28;20151;-69
2021/06/21 12:56:20;;;;;;;10.38;3.45;;;;;;;;;;5059518;28;20032;-71
2021/06/21 12:58:47;;;;;;;18.35;3.92;;;;;;;;;;5059133;28;20113;-70
2021/06/21 13:01:23;;;;;;;27.55;4.07;;;;;;;;;;5059800;28;20124;-69
2021/06/21 13:03:48;;;;;;;21.75;4.72;;;;;;;;;;5081460;28;20420;-68
2021/06/21 13:06:27;;;;;;;24.30;4.78;;;;;;;;;;5082871;28;20035;-69
2021/06/21 13:08:58;;;;;;;27.08;4.38;;;;;;;;;;5077225;28;20101;-69
2021/06/21 13:11:24;;;;;;;35.00;4.40;;;;;;;;;;5060433;28;20040;-68
2021/06/21 13:13:50;;;;;;;30.30;4.20;;;;;;;;;;5078025;28;20036;-69
2021/06/21 13:16:18;;;;;;;43.30;4.60;;;;;;;;;;5079159;28;20032;-68
2021/06/21 13:18:52;;;;;;;23.23;4.13;;;;;;;;;;5053286;28;20478;-68
2021/06/21 13:21:37;;;;;;;19.77;4.45;;;;;;;;;;5072935;28;20032;-68
2021/06/21 13:24:03;;;;;;;22.90;4.28;;;;;;;;;;5075826;28;20046;-72
2021/06/21 13:26:31;;;;;;;22.90;4.28;;;;;;;;;;5062321;28;20077;-69
2021/06/21 13:28:57;;;;;;;34.25;4.50;;;;;;;;;;5077880;28;20040;-73
2021/06/21 13:31:24;;;;;;;27.65;3.90;;;;;;;;;;5075714;28;20492;-66
2021/06/21 13:33:50;;;;;;;32.03;4.43;;;;;;;;;;5079800;28;20032;-73
2021/06/21 13:36:16;;;;;;;30.40;4.43;;;;;;;;;;5060479;28;20032;-73
2021/06/21 13:38:45;;;;;;;20.15;4.10;;;;;;;;;;5080948;28;20506;-72
2021/06/21 13:41:22;;;;;;;24.88;3.38;;;;;;;;;;5077893;28;20040;-72
2021/06/21 13:43:48;;;;;;;27.48;3.95;;;;;;;;;;5059928;28;20452;-73
2021/06/21 13:46:18;;;;;;;16.60;3.70;;;;;;;;;;5076261;28;20038;-71
2021/06/21 13:48:45;;;;;;;24.48;4.93;;;;;;;;;;5076170;28;20047;-71
2021/06/21 13:51:12;;;;;;;18.10;3.90;;;;;;;;;;5071339;28;20024;-71
2021/06/21 13:53:38;;;;;;;20.92;3.50;;;;;;;;;;5082189;28;20549;-72
2021/06/21 13:56:05;;;;;;;22.42;3.50;;;;;;;;;;5080007;28;20517;-72
2021/06/21 13:58:32;;;;;;;18.83;3.50;;;;;;;;;;5077913;28;20467;-74
2021/06/21 14:01:08;;;;;;;19.52;4.85;;;;;;;;;;5041437;28;20083;-73
2021/06/21 14:03:35;;;;;;;21.63;3.90;;;;;;;;;;5079213;28;20044;-76
2021/06/21 14:06:04;;;;;;;23.50;3.88;;;;;;;;;;5064824;28;20592;-73
2021/06/21 14:08:30;;;;;;;22.52;3.75;;;;;;;;;;5063984;28;20124;-72
2021/06/21 14:11:01;;;;;;;14.73;3.47;;;;;;;;;;5064934;28;20047;-71
2021/06/21 14:13:27;;;;;;;16.88;4.30;;;;;;;;;;5075859;28;20424;-71
2021/06/21 14:15:52;;;;;;;19.25;4.15;;;;;;;;;;5064862;28;20044;-71
2021/06/21 14:18:18;;;;;;;17.60;4.43;;;;;;;;;;5082190;28;20060;-71
2021/06/21 14:20:45;;;;;;;20.65;4.00;;;;;;;;;;5069415;28;20060;-72
2021/06/21 14:23:11;;;;;;;17.40;3.75;;;;;;;;;;5074126;28;20039;-72
2021/06/21 14:25:37;;;;;;;19.27;4.05;;;;;;;;;;5082726;28;20052;-69
2021/06/21 14:28:03;;;;;;;25.13;4.70;;;;;;;;;;5047132;28;20547;-69
2021/06/21 14:30:29;;;;;;;21.55;3.83;;;;;;;;;;5059954;28;20081;-69
2021/06/21 14:32:57;;;;;;;19.90;3.90;;;;;;;;;;5081168;28;20043;-70
2021/06/21 14:35:22;;;;;;;19.10;3.65;;;;;;;;;;5083725;28;20039;-69